Time;durP1;ratioP1;P1;durP2;ratioP2;P2;SDS_P1;SDS_P2;PMS_P1;PMS_P2;Temp;Humidity;BMP_temperature;BMP_pressure;BME280_temperature;BME280_humidity;BME280_pressure;Samples;Min_cycle;Max_cycle;Signal;HPM_P1;HPM_P2
2021/06/22 00:00:35;;;;;;;20.95;4.43;;;23.20;99.90;;;22.53;70.06;99887.25;4986166;28;20026;-55
2021/06/22 00:03:02;;;;;;;18.85;4.30;;;23.10;99.90;;;22.49;69.99;99892.22;5069751;28;20049;-53
2021/06/22 00:05:31;;;;;;;21.83;3.20;;;23.00;99.90;;;22.51;69.71;99900.75;4986103;28;20565;-57
2021/06/22 00:07:58;;;;;;;28.55;4.30;;;23.00;99.90;;;22.55;69.52;99887.00;5069849;28;20498;-55
2021/06/22 00:10:28;;;;;;;17.73;4.18;;;23.00;99.90;;;22.49;70.34;99894.06;4986520;28;20083;-52
2021/06/22 00:12:55;;;;;;;21.65;4.45;;;23.00;99.90;;;22.49;70.00;99888.75;4986312;28;20038;-57
2021/06/22 00:15:26;;;;;;;24.50;4.00;;;23.00;99.90;;;22.53;69.14;99887.25;4986057;28;20488;-51
2021/06/22 00:17:52;;;;;;;22.90;4.00;;;23.00;99.90;;;22.53;68.67;99876.63;4986468;28;20058;-54
2021/06/22 00:20:21;;;;;;;14.85;3.47;;;23.00;99.90;;;22.55;68.71;99884.34;5052400;28;20034;-52
2021/06/22 00:22:48;;;;;;;26.92;4.45;;;23.00;99.90;;;22.60;68.71;99890.56;4985970;28;20034;-54
2021/06/22 00:25:16;;;;;;;23.15;4.05;;;23.00;99.90;;;22.56;69.51;99896.59;4985827;28;20062;-52
2021/06/22 00:27:43;;;;;;;24.67;3.90;;;23.00;99.90;;;22.40;70.59;99892.81;4985303;28;20023;-57
2021/06/22 00:30:11;;;;;;;20.65;4.10;;;23.00;99.90;;;22.25;71.32;99889.84;4985872;28;20031;-55
2021/06/22 00:32:38;;;;;;;23.75;5.05;;;22.80;99.90;;;22.14;71.40;99889.66;4985794;28;20483;-57
2021/06/22 00:35:06;;;;;;;18.48;4.10;;;22.70;99.90;;;22.16;70.99;99892.91;5069165;28;20137;-54
2021/06/22 00:37:32;;;;;;;23.38;5.28;;;22.70;99.90;;;22.24;70.06;99885.59;4985983;28;20069;-55
2021/06/22 00:39:58;;;;;;;18.25;3.60;;;22.70;99.90;;;22.25;70.11;99888.00;4985759;28;20046;-53
2021/06/22 00:42:25;;;;;;;21.88;4.20;;;22.80;99.90;;;22.27;69.65;99883.28;4985447;28;20405;-53
2021/06/22 00:44:59;;;;;;;23.80;3.90;;;22.70;99.90;;;22.21;70.20;99883.44;4985572;28;20027;-57
2021/06/22 00:47:28;;;;;;;20.08;3.72;;;22.70;99.90;;;22.18;69.56;99871.44;4986144;28;20137;-55
2021/06/22 00:49:55;;;;;;;33.40;3.95;;;22.70;99.90;;;22.22;69.18;99880.50;4985787;28;20105;-57
2021/06/22 00:52:24;;;;;;;21.38;3.95;;;22.70;99.90;;;22.19;69.18;99875.72;4985586;28;20031;-54
2021/06/22 00:54:51;;;;;;;23.95;5.18;;;22.70;99.90;;;22.23;69.63;99891.94;4985388;28;20034;-51
2021/06/22 00:57:19;;;;;;;19.17;3.40;;;22.70;99.90;;;22.16;70.11;99884.13;4985922;28;20041;-51
2021/06/22 00:59:45;;;;;;;21.25;3.75;;;22.70;99.90;;;22.18;69.60;99879.41;4986030;28;20425;-54
2021/06/22 01:02:12;;;;;;;19.13;4.28;;;22.70;99.90;;;22.12;69.67;99881.13;4985558;28;20050;-55
2021/06/22 01:04:38;;;;;;;19.00;3.13;;;22.70;99.90;;;22.07;69.74;99882.88;4985560;28;20501;-54
2021/06/22 01:07:05;;;;;;;22.48;4.00;;;22.60;99.90;;;22.03;69.67;99877.22;4985869;28;20038;-51
2021/06/22 01:09:32;;;;;;;19.88;4.45;;;22.60;99.90;;;22.02;69.89;99875.63;4985585;28;20065;-53
2021/06/22 01:12:00;;;;;;;23.17;4.30;;;22.60;99.90;;;21.98;70.27;99874.44;4985332;28;20022;-57
2021/06/22 01:14:27;;;;;;;19.45;3.67;;;22.50;99.90;;;22.01;70.28;99868.69;4985413;28;20478;-52
2021/06/22 01:16:55;;;;;;;26.80;4.90;;;22.50;99.90;;;22.05;70.02;99864.53;4985440;28;20074;-52
2021/06/22 01:19:21;;;;;;;14.25;4.10;;;22.50;99.90;;;22.00;70.41;99853.78;4985377;28;20038;-55
2021/06/22 01:21:47;;;;;;;17.70;4.18;;;22.50;99.90;;;21.85;71.54;99866.72;4985194;28;20034;-56
2021/06/22 01:24:21;;;;;;;25.02;3.75;;;22.40;99.90;;;21.79;72.17;99870.28;5052408;28;20060;-55
2021/06/22 01:26:54;;;;;;;18.90;5.07;;;22.30;99.90;;;21.71;72.34;99868.03;4985340;28;20038;-53
2021/06/22 01:29:21;;;;;;;17.20;3.85;;;22.30;99.90;;;21.67;71.89;99867.69;5053031;28;20133;-54
2021/06/22 01:31:47;;;;;;;20.17;3.83;;;22.20;99.90;;;21.69;71.84;99867.44;4985409;28;20125;-56
2021/06/22 01:34:13;;;;;;;21.27;3.80;;;22.20;99.90;;;21.67;71.63;99872.19;4985230;28;20092;-54
2021/06/22 01:36:41;;;;;;;24.50;3.92;;;22.30;99.90;;;21.67;71.44;99872.97;4985588;28;20041;-51
2021/06/22 01:39:13;;;;;;;17.77;4.43;;;22.10;99.90;;;21.66;71.55;99867.91;5052174;28;20035;-53
2021/06/22 01:41:39;;;;;;;27.20;4.13;;;22.20;99.90;;;21.67;71.57;99874.81;4987856;28;20494;-56
2021/06/22 01:44:05;;;;;;;19.02;2.95;;;22.10;99.90;;;21.68;71.21;99876.44;4988500;28;20049;-54
2021/06/22 01:46:32;;;;;;;16.67;3.65;;;22.20;99.90;;;21.67;71.85;99882.78;4988384;28;20076;-54
2021/06/22 01:48:58;;;;;;;19.83;4.28;;;22.10;99.90;;;21.61;71.93;99876.56;4988151;28;20112;-58
2021/06/22 01:51:25;;;;;;;29.15;4.68;;;22.10;99.90;;;21.55;72.10;99885.41;4988509;28;20038;-54
2021/06/22 01:53:53;;;;;;;20.40;3.65;;;22.10;99.90;;;21.49;72.18;99887.16;4988361;28;20067;-55
2021/06/22 01:56:20;;;;;;;16.27;3.85;;;22.00;99.90;;;21.44;72.67;99884.38;4988462;28;20035;-55
2021/06/22 01:58:46;;;;;;;15.93;4.13;;;21.90;99.90;;;21.43;73.06;99888.06;4988198;28;20044;-55
2021/06/22 02:01:12;;;;;;;22.42;4.45;;;21.90;99.90;;;21.43;72.66;99884.59;4988213;28;20031;-54
2021/06/22 02:03:38;;;;;;;17.80;3.80;;;21.90;99.90;;;21.41;72.60;99887.47;4987917;28;20486;-50
2021/06/22 02:06:05;;;;;;;21.77;4.05;;;21.90;99.90;;;21.40;72.35;99885.88;4988130;28;20030;-51
2021/06/22 02:08:31;;;;;;;25.00;3.95;;;21.90;99.90;;;21.40;72.61;99898.31;4988159;28;20030;-52
2021/06/22 02:10:57;;;;;;;19.75;3.72;;;21.90;99.90;;;21.40;72.20;99901.75;4988220;28;20085;-54
2021/06/22 02:13:25;;;;;;;19.08;3.40;;;21.90;99.90;;;21.41;72.25;99894.63;4987968;28;20044;-51
2021/06/22 02:15:51;;;;;;;23.17;4.53;;;21.90;99.90;;;21.37;72.66;99896.09;5055012;28;20031;-51
2021/06/22 02:18:17;;;;;;;20.50;4.32;;;21.80;99.90;;;21.31;73.07;99897.03;4987889;28;20042;-55
2021/06/22 02:20:44;;;;;;;14.93;4.20;;;21.80;99.90;;;21.28;73.30;99897.47;4988024;28;20038;-51
2021/06/22 02:23:11;;;;;;;16.13;4.10;;;21.80;99.90;;;21.22;73.48;99896.56;4987885;28;20026;-55
2021/06/22 02:25:38;;;;;;;20.38;4.63;;;21.70;99.90;;;21.19;73.61;99891.69;4987708;28;20034;-50
2021/06/22 02:28:18;;;;;;;21.13;4.40;;;21.70;99.90;;;21.23;74.11;99889.44;4987686;28;20196;-53
2021/06/22 02:30:46;;;;;;;20.70;4.20;;;21.70;99.90;;;21.19;73.74;99886.41;5054271;28;20554;-52
2021/06/22 02:33:12;;;;;;;20.90;4.50;;;21.70;99.90;;;21.15;74.18;99895.81;4988528;28;20038;-52
2021/06/22 02:35:39;;;;;;;17.83;3.85;;;21.70;99.90;;;21.16;73.86;99894.78;4987847;28;20182;-50
2021/06/22 02:38:06;;;;;;;24.77;3.90;;;21.70;99.90;;;21.14;74.05;99895.03;4988332;28;20221;-53
2021/06/22 02:43:07;;;;;;;;;;;21.70;99.90;;;21.15;74.04;99891.34;4918653;22;20110;-50
2021/06/22 02:45:34;;;;;;;;;;;21.70;99.90;;;21.14;74.22;99894.22;5050220;28;20011;-56
2021/06/22 02:48:02;;;;;;;19.73;4.00;;;21.60;99.90;;;21.11;73.34;99892.81;5049935;28;19935;-54
2021/06/22 02:50:28;;;;;;;21.35;4.63;;;21.70;99.90;;;21.11;73.73;99894.66;5047905;28;20043;-51
2021/06/22 02:52:54;;;;;;;25.83;4.13;;;21.60;99.90;;;21.10;73.76;99890.41;5049920;28;20047;-57
2021/06/22 02:55:21;;;;;;;20.02;4.68;;;21.60;99.90;;;21.05;74.71;99896.38;5049629;28;20033;-55
2021/06/22 02:57:55;;;;;;;22.85;3.88;;;21.50;99.90;;;21.00;74.60;99901.53;5049500;28;20029;-51
2021/06/22 03:00:29;;;;;;;22.50;3.20;;;21.50;99.90;;;20.97;74.79;99894.03;5049539;28;20040;-56
2021/06/22 03:02:56;;;;;;;19.63;4.47;;;21.50;99.90;;;20.99;74.12;99901.75;5049134;28;20044;-55
2021/06/22 03:05:23;;;;;;;24.25;4.05;;;21.50;99.90;;;21.00;73.99;99900.72;5049514;28;20842;-54
2021/06/22 03:07:49;;;;;;;19.80;4.53;;;21.50;99.90;;;21.01;73.61;99895.22;5049653;28;20373;-54
2021/06/22 03:10:18;;;;;;;21.67;4.57;;;21.50;99.90;;;21.05;73.79;99892.91;5047915;28;20033;-50
2021/06/22 03:12:44;;;;;;;17.23;4.63;;;21.50;99.90;;;21.03;73.61;99897.63;5049293;28;20065;-53
2021/06/22 03:15:16;;;;;;;16.88;3.45;;;21.50;99.90;;;21.04;73.01;99902.72;5049713;28;20040;-57
2021/06/22 03:17:42;;;;;;;15.27;3.65;;;21.50;99.90;;;21.07;72.57;99906.75;5048983;28;20025;-54
2021/06/22 03:20:10;;;;;;;21.73;4.20;;;21.50;99.90;;;21.06;72.95;99913.06;5049115;28;20040;-54
2021/06/22 03:22:37;;;;;;;23.70;4.22;;;21.60;99.90;;;21.08;72.71;99909.16;5049192;28;20519;-55
2021/06/22 03:25:09;;;;;;;27.90;3.70;;;21.60;99.90;;;21.06;72.91;99905.13;5031173;28;20302;-52
2021/06/22 03:27:35;;;;;;;13.98;3.85;;;21.50;99.90;;;21.05;72.82;99911.47;5047485;28;20515;-52
2021/06/22 03:30:04;;;;;;;17.85;3.75;;;21.50;99.90;;;21.08;72.97;99906.53;5049209;28;20105;-52
2021/06/22 03:32:30;;;;;;;12.82;3.10;;;21.60;99.90;;;21.10;72.97;99904.44;5049136;28;20029;-56
2021/06/22 03:34:56;;;;;;;20.23;3.83;;;21.60;99.90;;;21.10;72.53;99904.44;5048730;28;20341;-53
2021/06/22 03:37:22;;;;;;;16.27;3.83;;;21.60;99.90;;;21.12;72.93;99912.16;5048525;28;20446;-53
2021/06/22 03:39:48;;;;;;;25.42;4.93;;;21.70;99.90;;;21.14;72.78;99910.09;5048554;28;20391;-57
2021/06/22 03:42:14;;;;;;;23.88;4.75;;;21.60;99.90;;;21.16;72.99;99913.34;5052336;28;20037;-53
2021/06/22 03:44:40;;;;;;;21.92;4.50;;;21.70;99.90;;;21.26;72.55;99910.16;5050413;28;20047;-53
2021/06/22 03:47:06;;;;;;;20.75;4.55;;;21.80;99.90;;;21.31;72.05;99915.56;5050224;28;20048;-51
2021/06/22 03:49:33;;;;;;;20.52;4.18;;;21.80;99.90;;;21.40;71.04;99917.66;5068469;28;20024;-53
2021/06/22 03:51:59;;;;;;;19.98;3.85;;;21.90;99.90;;;21.40;70.61;99916.84;5068452;28;20514;-56
2021/06/22 03:54:25;;;;;;;22.38;4.18;;;22.00;99.90;;;21.41;70.39;99921.13;5068439;28;20122;-56
2021/06/22 03:56:51;;;;;;;15.65;3.38;;;22.00;99.90;;;21.50;70.02;99920.56;5068977;28;20146;-53
2021/06/22 03:59:18;;;;;;;16.33;3.83;;;22.10;99.90;;;21.66;69.45;99919.09;5068159;28;20105;-47
2021/06/22 04:01:44;;;;;;;22.60;4.22;;;22.20;99.90;;;21.84;69.16;99920.78;5068228;28;20151;-56
2021/06/22 04:04:10;;;;;;;20.73;4.30;;;22.40;99.90;;;22.07;69.04;99926.13;5067673;28;20036;-54
2021/06/22 04:06:36;;;;;;;19.98;3.85;;;22.70;99.90;;;22.45;67.75;99924.78;5068200;28;20038;-54
2021/06/22 04:09:02;;;;;;;28.38;5.05;;;23.00;99.90;;;22.89;66.84;99928.56;5068127;28;20043;-50
2021/06/22 04:11:29;;;;;;;22.85;3.97;;;23.50;99.90;;;23.18;66.21;99932.00;5068204;28;20071;-56
2021/06/22 04:13:54;;;;;;;21.77;4.35;;;24.10;99.90;;;23.62;64.31;99938.34;5066663;28;20033;-57
2021/06/22 04:16:21;;;;;;;28.23;4.45;;;24.70;99.90;;;23.90;63.09;99934.75;5068372;28;20039;-48
2021/06/22 04:18:47;;;;;;;18.45;3.22;;;25.00;99.90;;;24.13;62.41;99939.84;5068149;28;20499;-56
2021/06/22 04:21:13;;;;;;;14.70;3.53;;;25.40;99.60;;;24.39;61.50;99946.34;5066662;28;20028;-52
2021/06/22 04:23:39;;;;;;;19.70;4.07;;;25.70;98.50;;;24.32;61.26;99947.56;5068283;28;20055;-51
2021/06/22 04:26:05;;;;;;;14.27;2.53;;;25.70;98.00;;;24.59;60.74;99947.63;5049751;28;20068;-57
2021/06/22 04:28:31;;;;;;;16.15;3.38;;;25.80;97.90;;;24.81;60.32;99953.75;5068381;28;20033;-49
2021/06/22 04:30:57;;;;;;;22.45;3.70;;;26.00;97.70;;;25.06;59.53;99961.22;5068028;28;20024;-54
2021/06/22 04:33:24;;;;;;;14.32;3.58;;;26.60;96.20;;;25.10;59.90;99960.47;5068350;28;20158;-48
2021/06/22 04:35:50;;;;;;;14.55;3.03;;;26.80;95.50;;;25.48;58.84;99957.88;5049749;28;20090;-53
2021/06/22 04:38:16;;;;;;;17.08;3.42;;;27.10;94.90;;;25.67;58.29;99956.44;5068197;28;20032;-53
2021/06/22 04:40:42;;;;;;;23.90;3.50;;;27.30;94.30;;;25.60;58.38;99961.16;5049728;28;20110;-54
2021/06/22 04:43:08;;;;;;;19.65;3.97;;;27.60;93.30;;;25.80;57.69;99953.34;5067623;28;20128;-54
2021/06/22 04:45:36;;;;;;;16.77;2.90;;;27.80;92.40;;;25.92;57.49;99961.97;5067661;28;20499;-53
2021/06/22 04:48:03;;;;;;;17.65;4.10;;;27.90;91.90;;;26.26;56.72;99961.59;5067988;28;20029;-56
2021/06/22 04:50:29;;;;;;;14.88;3.03;;;28.10;91.50;;;26.70;55.01;99962.06;5068041;28;20136;-57
2021/06/22 04:52:55;;;;;;;16.83;3.13;;;28.70;90.10;;;27.31;53.16;99963.03;5068060;28;20201;-53
2021/06/22 04:55:25;;;;;;;15.18;2.85;;;29.40;85.70;;;27.67;51.43;99973.75;5067679;28;20217;-54
2021/06/22 04:57:52;;;;;;;27.55;3.17;;;29.80;81.30;;;28.62;49.54;99977.25;5066307;28;20036;-54
2021/06/22 05:00:19;;;;;;;19.17;2.92;;;30.60;79.20;;;28.99;48.21;99981.38;5067716;28;20043;-52
2021/06/22 05:02:45;;;;;;;18.42;3.08;;;31.40;74.40;;;29.55;46.74;99991.72;5067759;28;20098;-53
2021/06/22 05:05:13;;;;;;;21.73;2.85;;;32.10;70.50;;;28.61;48.70;99981.00;5067696;28;20068;-51
2021/06/22 05:07:40;;;;;;;19.60;3.75;;;31.40;71.70;;;28.73;48.99;99983.38;5067637;28;20039;-52
2021/06/22 05:10:08;;;;;;;20.10;3.10;;;31.30;71.20;;;29.38;47.25;99976.78;5068052;28;20028;-51
2021/06/22 05:12:34;;;;;;;14.05;2.65;;;32.00;68.00;;;28.99;48.66;99984.84;5066324;28;20024;-54
2021/06/22 05:15:01;;;;;;;23.17;2.85;;;31.90;68.60;;;28.86;48.14;99977.41;5070152;28;20040;-54
2021/06/22 05:17:27;;;;;;;17.90;3.20;;;31.70;67.80;;;28.06;50.72;99987.31;5071254;28;20506;-56
2021/06/22 05:19:53;;;;;;;17.65;3.72;;;30.80;70.00;;;27.96;51.10;99977.44;5071126;28;20028;-52
2021/06/22 05:22:19;;;;;;;15.27;3.58;;;30.10;73.10;;;28.34;49.84;99986.75;5071278;28;20397;-51
2021/06/22 05:24:45;;;;;;;23.65;4.32;;;30.50;71.40;;;28.42;49.40;99978.13;5052901;28;20201;-54
2021/06/22 05:27:14;;;;;;;17.10;2.90;;;30.40;71.40;;;28.56;49.00;99986.38;5071332;28;20318;-50
2021/06/22 05:29:42;;;;;;;19.05;3.28;;;30.90;69.90;;;29.21;46.96;99984.44;5071187;28;20037;-51
2021/06/22 05:32:09;;;;;;;20.40;3.45;;;31.90;66.70;;;29.63;45.36;99983.88;5071003;28;20039;-54
2021/06/22 05:34:35;;;;;;;17.02;2.80;;;32.60;63.80;;;30.08;45.04;99984.53;5069739;28;20040;-56
2021/06/22 05:37:02;;;;;;;23.50;2.95;;;33.00;63.40;;;30.31;44.11;99999.84;5071081;28;20043;-52
2021/06/22 05:39:28;;;;;;;12.35;2.63;;;33.30;61.90;;;30.69;43.57;99992.72;5070770;28;20024;-54
2021/06/22 05:41:54;;;;;;;13.52;2.95;;;33.80;61.10;;;30.71;43.66;99983.56;5070500;28;20048;-56
2021/06/22 05:44:20;;;;;;;21.30;4.07;;;34.00;60.00;;;31.21;42.38;99987.41;5069355;28;20059;-55
2021/06/22 05:46:46;;;;;;;18.65;2.88;;;34.10;59.60;;;30.96;43.04;99993.94;5070674;28;20562;-53
2021/06/22 05:49:12;;;;;;;20.23;3.35;;;34.10;58.80;;;30.90;42.70;99982.44;5051825;28;20056;-53
2021/06/22 05:51:38;;;;;;;19.92;3.17;;;34.10;58.60;;;31.25;42.25;99994.59;5069881;28;20453;-54
2021/06/22 05:54:04;;;;;;;22.40;2.97;;;34.20;57.90;;;31.28;42.44;99999.41;5069860;28;20090;-57
2021/06/22 05:56:30;;;;;;;19.13;3.33;;;34.40;57.60;;;31.97;40.97;99995.03;5070005;28;20127;-50
2021/06/22 05:58:56;;;;;;;19.00;3.38;;;35.10;56.60;;;31.12;42.74;99989.94;5069725;28;20036;-50
2021/06/22 06:01:22;;;;;;;17.08;3.10;;;34.60;57.20;;;31.58;42.04;99997.31;5070185;28;20040;-51
2021/06/22 06:03:48;;;;;;;19.33;2.00;;;34.80;56.60;;;32.28;41.04;100003.34;5070237;28;20148;-54
2021/06/22 06:06:14;;;;;;;17.58;3.25;;;35.30;56.30;;;32.52;40.27;99999.66;5069548;28;20468;-57
2021/06/22 06:08:40;;;;;;;22.83;3.83;;;35.90;54.80;;;32.48;40.53;100006.75;5069512;28;20503;-51
2021/06/22 06:11:06;;;;;;;17.20;3.28;;;35.70;55.10;;;32.15;40.72;100008.69;5070054;28;20155;-53
2021/06/22 06:13:37;;;;;;;22.08;2.78;;;35.50;54.80;;;32.39;39.85;100017.44;5070051;28;20395;-56
2021/06/22 06:16:07;;;;;;;25.30;3.92;;;35.50;55.20;;;32.18;40.44;100013.50;5069396;28;20522;-50
2021/06/22 06:18:33;;;;;;;19.23;4.20;;;35.50;54.40;;;32.44;40.31;100020.03;5069552;28;20033;-51
2021/06/22 06:21:00;;;;;;;16.35;2.92;;;35.40;55.00;;;32.86;39.69;100018.91;5069549;28;20063;-54
2021/06/22 06:23:31;;;;;;;17.02;3.10;;;35.90;54.50;;;33.51;38.52;100021.22;5068956;28;20463;-54
2021/06/22 06:25:57;;;;;;;26.10;3.20;;;37.00;53.00;;;34.47;36.57;100028.72;5066850;28;20605;-52
2021/06/22 06:28:28;;;;;;;22.63;3.47;;;38.10;50.60;;;34.48;36.40;100029.53;5069288;28;20052;-54
2021/06/22 06:30:54;;;;;;;20.98;3.67;;;38.40;50.00;;;33.54;38.13;100025.19;5069297;28;20048;-55
2021/06/22 06:33:20;;;;;;;17.08;3.45;;;37.80;50.40;;;34.06;37.59;100028.19;5069407;28;20040;-54
2021/06/22 06:35:46;;;;;;;19.23;3.13;;;38.10;50.30;;;33.84;38.12;100023.66;5069477;28;20024;-47
2021/06/22 06:38:12;;;;;;;20.38;3.45;;;38.30;50.00;;;34.75;36.47;100020.34;5069251;28;20036;-53
2021/06/22 06:40:38;;;;;;;31.48;3.08;;;38.60;49.40;;;34.78;36.09;100025.13;5069170;28;20103;-53
2021/06/22 06:43:04;;;;;;;22.23;4.75;;;39.00;48.80;;;34.79;36.34;100026.72;5069344;28;20222;-50
2021/06/22 06:45:31;;;;;;;14.35;3.22;;;39.30;47.80;;;34.99;35.55;100030.72;5069131;28;20124;-50
2021/06/22 06:47:57;;;;;;;19.75;3.13;;;39.30;47.80;;;35.13;35.32;100025.94;5069201;28;20090;-52
2021/06/22 06:50:23;;;;;;;17.17;2.38;;;39.40;47.60;;;35.09;35.21;100030.41;5069140;28;20063;-55
2021/06/22 06:52:49;;;;;;;26.67;4.43;;;39.30;47.60;;;34.81;35.52;100029.94;5069407;28;20117;-51
2021/06/22 06:55:28;;;;;;;24.08;3.20;;;38.90;47.90;;;34.98;35.29;100024.50;5069198;28;20483;-55
2021/06/22 06:58:00;;;;;;;23.83;3.50;;;38.80;48.10;;;34.88;35.59;100035.66;5067492;28;20036;-51
2021/06/22 07:00:30;;;;;;;19.63;3.22;;;38.80;47.70;;;34.53;35.92;100035.56;5068625;28;20039;-53
2021/06/22 07:02:57;;;;;;;17.23;3.40;;;38.70;47.80;;;34.45;36.37;100044.47;5068982;28;20025;-56
2021/06/22 07:05:23;;;;;;;23.45;3.63;;;38.70;47.70;;;34.27;36.58;100038.16;5068654;28;20119;-55
2021/06/22 07:07:49;;;;;;;26.52;3.22;;;38.20;48.70;;;34.91;35.71;100045.88;5068704;28;20036;-55
2021/06/22 07:10:16;;;;;;;18.88;3.30;;;38.30;48.90;;;34.64;36.58;100036.06;5068327;28;20025;-54
2021/06/22 07:12:43;;;;;;;22.33;4.50;;;37.50;50.70;;;33.81;38.74;100043.97;5068416;28;20063;-54
2021/06/22 07:15:12;;;;;;;19.90;3.55;;;36.00;53.80;;;33.17;39.92;100048.69;5068702;28;20044;-49
2021/06/22 07:17:38;;;;;;;25.45;3.50;;;34.90;56.00;;;32.48;42.23;100053.38;5068192;28;20075;-52
2021/06/22 07:20:07;;;;;;;16.30;2.88;;;33.90;58.40;;;32.39;42.50;100044.41;5068224;28;20046;-57
2021/06/22 07:22:35;;;;;;;25.65;3.33;;;33.50;59.30;;;32.35;41.93;100048.78;5052055;28;20051;-51
2021/06/22 07:25:02;;;;;;;22.65;3.92;;;33.40;59.50;;;32.11;42.50;100054.34;5046738;28;20441;-53
2021/06/22 07:27:28;;;;;;;16.45;3.63;;;33.10;60.20;;;32.07;43.12;100052.53;5025923;28;20484;-51
2021/06/22 07:29:54;;;;;;;21.10;4.78;;;33.00;60.50;;;31.98;42.71;100055.09;5048105;28;20051;-55
2021/06/22 07:32:21;;;;;;;22.77;3.72;;;32.90;61.00;;;32.09;43.18;100055.72;5047960;28;20102;-53
2021/06/22 07:34:47;;;;;;;15.93;3.45;;;32.70;61.70;;;31.97;43.80;100054.31;5048376;28;20032;-56
2021/06/22 07:37:14;;;;;;;23.63;4.85;;;32.70;62.20;;;32.33;42.91;100056.38;5047184;28;20380;-55
2021/06/22 07:39:40;;;;;;;28.48;3.35;;;33.00;61.70;;;32.33;42.94;100051.78;5048041;28;20384;-52
2021/06/22 07:42:07;;;;;;;15.85;3.00;;;33.00;62.00;;;32.47;42.71;100046.41;5050024;28;20083;-50
2021/06/22 07:44:33;;;;;;;24.45;3.70;;;33.20;62.00;;;32.36;42.63;100047.69;5068226;28;20482;-52
2021/06/22 07:46:59;;;;;;;14.13;2.80;;;33.10;61.60;;;31.85;43.62;100056.66;5067715;28;20043;-53
2021/06/22 07:49:25;;;;;;;22.55;3.70;;;32.70;62.20;;;32.30;42.70;100062.34;5067818;28;20044;-50
2021/06/22 07:51:51;;;;;;;25.65;3.53;;;32.90;62.10;;;32.48;42.25;100055.28;5067930;28;20070;-53
2021/06/22 07:54:17;;;;;;;22.88;4.10;;;33.20;61.50;;;32.27;42.13;100058.34;5067634;28;20472;-54
2021/06/22 07:56:43;;;;;;;19.15;2.88;;;33.00;61.40;;;32.50;41.91;100056.59;5049492;28;20041;-55
2021/06/22 07:59:09;;;;;;;21.58;3.15;;;33.10;61.60;;;32.24;42.33;100052.75;5049932;28;20059;-51
2021/06/22 08:01:35;;;;;;;33.35;4.22;;;33.20;61.60;;;32.45;41.84;100053.19;5066063;28;20036;-53
2021/06/22 08:04:01;;;;;;;39.92;6.68;;;33.00;61.70;;;33.26;40.99;100054.16;5067737;28;20476;-53
2021/06/22 08:06:27;;;;;;;24.95;4.15;;;33.60;61.30;;;33.64;39.86;100054.63;5067351;28;20025;-52
2021/06/22 08:08:53;;;;;;;15.05;2.75;;;34.00;60.40;;;33.40;39.78;100051.47;5067397;28;20440;-51
2021/06/22 08:11:19;;;;;;;25.02;3.35;;;34.10;60.50;;;33.74;39.44;100050.91;5067348;28;20032;-53
2021/06/22 08:13:45;;;;;;;17.58;2.70;;;34.30;59.80;;;33.59;38.93;100058.25;5067575;28;20071;-51
2021/06/22 08:16:11;;;;;;;18.73;3.40;;;34.20;58.50;;;33.51;39.36;100058.22;5049611;28;20503;-50
2021/06/22 08:18:37;;;;;;;18.63;3.90;;;34.10;59.30;;;32.78;41.30;100061.97;5067421;28;20035;-53
2021/06/22 08:21:05;;;;;;;25.92;3.30;;;33.80;59.70;;;31.92;43.37;100064.38;5067488;28;20420;-53
2021/06/22 08:23:31;;;;;;;24.98;3.50;;;33.10;61.20;;;31.24;44.56;100073.72;5067160;28;20051;-52
2021/06/22 08:25:57;;;;;;;19.63;3.45;;;32.50;62.40;;;31.00;44.77;100071.09;5067696;28;20121;-52
2021/06/22 08:28:24;;;;;;;25.55;4.03;;;32.10;63.10;;;30.89;45.63;100071.50;5067217;28;20444;-56
2021/06/22 08:30:50;;;;;;;21.20;3.60;;;31.80;64.20;;;30.76;46.20;100072.19;5067465;28;20032;-52
2021/06/22 08:33:17;;;;;;;23.73;3.95;;;31.60;65.00;;;30.77;46.00;100081.84;5065727;28;20041;-57
2021/06/22 08:35:43;;;;;;;27.67;3.80;;;31.40;65.50;;;30.63;46.25;100081.78;5067320;28;20047;-55
2021/06/22 08:38:11;;;;;;;23.67;3.90;;;31.50;65.60;;;30.58;46.17;100088.00;5067156;28;20063;-54
2021/06/22 08:40:40;;;;;;;18.20;3.08;;;31.40;65.00;;;30.68;46.15;100090.59;5067006;28;20456;-61
2021/06/22 08:43:10;;;;;;;25.15;3.78;;;31.50;65.40;;;30.81;46.33;100091.75;5065637;28;20056;-54
2021/06/22 08:45:37;;;;;;;19.15;3.53;;;31.50;65.70;;;31.99;43.75;100083.66;5065776;28;20207;-55
2021/06/22 08:48:06;;;;;;;20.73;3.92;;;32.10;65.40;;;32.31;42.50;100080.13;5066828;28;20515;-59
2021/06/22 08:50:34;;;;;;;16.00;2.85;;;32.80;62.80;;;31.79;43.64;100084.78;5070422;28;20043;-59
2021/06/22 08:53:00;;;;;;;18.98;3.60;;;32.70;62.90;;;31.68;43.48;100083.34;5070902;28;20487;-53
2021/06/22 08:55:29;;;;;;;29.05;3.97;;;32.50;63.30;;;32.33;42.08;100076.03;5067082;28;20036;-55
2021/06/22 08:58:04;;;;;;;19.15;3.05;;;32.70;62.80;;;31.83;42.67;100080.41;5065246;28;20032;-56
2021/06/22 09:00:35;;;;;;;24.13;4.60;;;32.70;62.30;;;32.38;41.65;100085.94;5069883;28;20055;-58
2021/06/22 09:03:14;;;;;;;25.95;3.63;;;32.80;62.40;;;33.12;39.35;100078.50;5052195;28;20050;-53
2021/06/22 09:05:47;;;;;;;23.25;3.00;;;33.40;61.10;;;32.92;40.09;100076.25;5064865;28;20053;-54
2021/06/22 09:08:31;;;;;;;19.02;3.33;;;33.30;60.60;;;33.37;38.82;100085.28;5050302;28;20037;-57
2021/06/22 09:11:06;;;;;;;22.67;3.90;;;33.60;59.80;;;33.80;37.64;100077.50;5051064;28;20132;-62
2021/06/22 09:13:34;;;;;;;24.70;3.38;;;34.10;58.80;;;33.64;37.74;100090.56;5050724;28;20049;-55
2021/06/22 09:16:00;;;;;;;21.20;3.88;;;34.30;58.00;;;33.94;37.79;100090.94;5050609;28;20037;-57
2021/06/22 09:18:32;;;;;;;24.85;3.45;;;34.30;58.20;;;33.09;38.45;100084.50;5049299;28;20028;-51
2021/06/22 09:21:05;;;;;;;28.10;3.72;;;34.10;57.90;;;32.84;39.66;100085.06;5049362;28;20037;-58
2021/06/22 09:23:38;;;;;;;24.63;3.90;;;33.60;58.80;;;33.34;38.20;100079.69;5050627;28;20102;-58
2021/06/22 09:26:30;;;;;;;23.00;3.50;;;33.70;58.90;;;33.61;37.73;100085.75;5049051;28;20132;-58
2021/06/22 09:29:14;;;;;;;17.58;2.88;;;33.90;58.40;;;33.67;36.59;100083.75;5049239;28;20127;-60
2021/06/22 09:31:56;;;;;;;24.17;3.03;;;34.10;56.60;;;33.60;37.48;100084.16;5059941;28;20032;-54
2021/06/22 09:34:25;;;;;;;18.90;3.10;;;34.10;57.90;;;33.87;36.77;100088.69;5067524;28;20294;-56
2021/06/22 09:36:52;;;;;;;14.57;3.08;;;34.10;57.20;;;34.03;36.25;100089.06;5052279;28;20036;-55
2021/06/22 09:39:21;;;;;;;23.58;3.58;;;34.30;56.70;;;33.45;37.57;100089.16;5052331;28;20404;-57
2021/06/22 09:41:47;;;;;;;12.13;2.50;;;34.10;57.00;;;34.03;37.03;100096.41;5070375;28;20025;-53
2021/06/22 09:44:16;;;;;;;23.10;3.05;;;34.30;57.40;;;34.26;36.54;100096.03;5070292;28;20040;-55
2021/06/22 09:46:54;;;;;;;20.83;3.47;;;34.60;56.80;;;33.91;37.08;100094.28;5069865;28;20109;-57
2021/06/22 09:49:21;;;;;;;23.40;3.63;;;34.40;57.30;;;34.17;37.19;100097.91;5069982;28;20534;-56
2021/06/22 09:52:01;;;;;;;21.80;3.75;;;34.60;57.70;;;34.51;36.71;100101.88;5070214;28;20043;-56
2021/06/22 09:54:46;;;;;;;19.05;3.55;;;34.80;57.50;;;34.82;35.55;100093.75;5051924;28;20036;-54
2021/06/22 09:57:16;;;;;;;22.42;3.60;;;35.10;56.70;;;34.78;36.38;100098.97;5070405;28;20036;-57
2021/06/22 09:59:50;;;;;;;20.42;3.88;;;35.10;56.80;;;35.19;36.20;100104.00;5070095;28;20032;-55
2021/06/22 10:02:17;;;;;;;30.92;4.03;;;35.40;57.10;;;34.65;36.93;100094.47;5069478;28;20446;-52
2021/06/22 10:04:59;;;;;;;23.40;3.92;;;35.10;56.80;;;33.89;37.73;100086.47;5070389;28;20032;-56
2021/06/22 10:07:28;;;;;;;19.85;3.38;;;34.40;57.30;;;34.29;36.98;100095.41;5070280;28;20391;-63
2021/06/22 10:10:02;;;;;;;21.67;3.25;;;34.70;57.40;;;34.63;36.64;100098.59;5069848;28;20032;-54
2021/06/22 10:12:30;;;;;;;22.23;3.63;;;34.90;57.10;;;34.45;36.21;100092.34;5051824;28;20506;-56
2021/06/22 10:15:05;;;;;;;30.45;4.93;;;34.90;56.40;;;33.51;38.03;100096.03;5069750;28;20048;-55